sensor_id;sensor_type;location;lat;lon;timestamp;pressure;altitude;pressure_sealevel;temperature;humidity
14269;BME280;7218;51.480;7.006;2023-07-29T00:01:06;99214.16;;;15.04;100.00
14269;BME280;7218;51.480;7.006;2023-07-29T00:03:33;99224.66;;;14.89;100.00
14269;BME280;7218;51.480;7.006;2023-07-29T00:05:59;99217.53;;;14.91;100.00
14269;BME280;7218;51.480;7.006;2023-07-29T00:08:26;99219.31;;;14.90;100.00
14269;BME280;7218;51.480;7.006;2023-07-29T00:10:54;99210.19;;;14.97;100.00
14269;BME280;7218;51.480;7.006;2023-07-29T00:13:20;99214.22;;;14.87;100.00
14269;BME280;7218;51.480;7.006;2023-07-29T00:15:47;99209.97;;;14.85;100.00
14269;BME280;7218;51.480;7.006;2023-07-29T00:18:13;99206.44;;;14.86;100.00
14269;BME280;7218;51.480;7.006;2023-07-29T00:20:40;99216.00;;;14.87;100.00
14269;BME280;7218;51.480;7.006;2023-07-29T00:23:06;99207.28;;;14.86;100.00
14269;BME280;7218;51.480;7.006;2023-07-29T00:25:33;99216.25;;;14.82;100.00
14269;BME280;7218;51.480;7.006;2023-07-29T00:28:00;99203.41;;;14.93;100.00
14269;BME280;7218;51.480;7.006;2023-07-29T00:30:27;99197.31;;;14.93;100.00
14269;BME280;7218;51.480;7.006;2023-07-29T00:32:53;99198.31;;;14.90;100.00
14269;BME280;7218;51.480;7.006;2023-07-29T00:35:20;99194.41;;;14.82;100.00
14269;BME280;7218;51.480;7.006;2023-07-29T00:37:46;99183.41;;;14.91;100.00
14269;BME280;7218;51.480;7.006;2023-07-29T00:40:17;99187.41;;;14.98;100.00
14269;BME280;7218;51.480;7.006;2023-07-29T00:42:45;99190.94;;;14.97;100.00
14269;BME280;7218;51.480;7.006;2023-07-29T00:45:13;99181.31;;;14.97;100.00
14269;BME280;7218;51.480;7.006;2023-07-29T00:47:41;99187.47;;;14.96;100.00
14269;BME280;7218;51.480;7.006;2023-07-29T00:50:09;99183.41;;;14.91;100.00
14269;BME280;7218;51.480;7.006;2023-07-29T00:52:37;99184.25;;;14.91;100.00
14269;BME280;7218;51.480;7.006;2023-07-29T00:55:03;99188.25;;;14.98;100.00
14269;BME280;7218;51.480;7.006;2023-07-29T00:57:30;99178.59;;;14.99;100.00
14269;BME280;7218;51.480;7.006;2023-07-29T00:59:57;99182.03;;;14.99;100.00
14269;BME280;7218;51.480;7.006;2023-07-29T01:02:25;99173.94;;;15.04;100.00
14269;BME280;7218;51.480;7.006;2023-07-29T01:04:53;99175.13;;;14.98;100.00
14269;BME280;7218;51.480;7.006;2023-07-29T01:07:25;99169.03;;;14.98;100.00
14269;BME280;7218;51.480;7.006;2023-07-29T01:09:58;99169.19;;;14.95;100.00
14269;BME280;7218;51.480;7.006;2023-07-29T01:12:32;99173.94;;;15.04;100.00
14269;BME280;7218;51.480;7.006;2023-07-29T01:15:07;99178.16;;;15.06;100.00
14269;BME280;7218;51.480;7.006;2023-07-29T01:17:42;99171.31;;;15.04;100.00
14269;BME280;7218;51.480;7.006;2023-07-29T01:20:11;99167.06;;;15.01;100.00
14269;BME280;7218;51.480;7.006;2023-07-29T01:22:40;99168.78;;;15.02;100.00
14269;BME280;7218;51.480;7.006;2023-07-29T01:25:09;99173.25;;;15.16;100.00
14269;BME280;7218;51.480;7.006;2023-07-29T01:27:35;99172.59;;;15.13;100.00
14269;BME280;7218;51.480;7.006;2023-07-29T01:30:03;99170.97;;;15.10;100.00
14269;BME280;7218;51.480;7.006;2023-07-29T01:32:35;99169.78;;;15.16;100.00
14269;BME280;7218;51.480;7.006;2023-07-29T01:35:13;99164.63;;;15.14;100.00
14269;BME280;7218;51.480;7.006;2023-07-29T01:37:41;99163.44;;;15.04;100.00
14269;BME280;7218;51.480;7.006;2023-07-29T01:40:13;99163.94;;;15.11;100.00
14269;BME280;7218;51.480;7.006;2023-07-29T01:42:40;99154.34;;;15.09;100.00
14269;BME280;7218;51.480;7.006;2023-07-29T01:45:07;99153.09;;;15.17;100.00
14269;BME280;7218;51.480;7.006;2023-07-29T01:47:33;99151.31;;;15.17;100.00
14269;BME280;7218;51.480;7.006;2023-07-29T01:50:00;99160.19;;;15.15;100.00
14269;BME280;7218;51.480;7.006;2023-07-29T01:52:26;99154.88;;;15.16;100.00
14269;BME280;7218;51.480;7.006;2023-07-29T01:54:53;99155.47;;;15.21;100.00
14269;BME280;7218;51.480;7.006;2023-07-29T01:57:20;99148.34;;;15.23;100.00
14269;BME280;7218;51.480;7.006;2023-07-29T01:59:47;99142.13;;;15.24;100.00
14269;BME280;7218;51.480;7.006;2023-07-29T02:02:13;99142.84;;;15.28;100.00
14269;BME280;7218;51.480;7.006;2023-07-29T02:04:40;99145.28;;;15.31;100.00
14269;BME280;7218;51.480;7.006;2023-07-29T02:07:06;99150.53;;;15.31;100.00
14269;BME280;7218;51.480;7.006;2023-07-29T02:09:33;99146.84;;;15.19;100.00
14269;BME280;7218;51.480;7.006;2023-07-29T02:11:59;99141.22;;;15.25;100.00
14269;BME280;7218;51.480;7.006;2023-07-29T02:14:27;99130.56;;;15.28;100.00
14269;BME280;7218;51.480;7.006;2023-07-29T02:16:54;99123.09;;;15.21;100.00
14269;BME280;7218;51.480;7.006;2023-07-29T02:19:20;99124.72;;;15.23;100.00
14269;BME280;7218;51.480;7.006;2023-07-29T02:21:47;99123.75;;;15.24;100.00
14269;BME280;7218;51.480;7.006;2023-07-29T02:24:13;99136.81;;;15.26;100.00
14269;BME280;7218;51.480;7.006;2023-07-29T02:26:41;99122.09;;;15.23;100.00
14269;BME280;7218;51.480;7.006;2023-07-29T02:29:07;99115.13;;;15.22;100.00
14269;BME280;7218;51.480;7.006;2023-07-29T02:31:35;99109.81;;;15.24;100.00
14269;BME280;7218;51.480;7.006;2023-07-29T02:34:02;99111.66;;;15.22;100.00
14269;BME280;7218;51.480;7.006;2023-07-29T02:36:29;99115.13;;;15.22;100.00
14269;BME280;7218;51.480;7.006;2023-07-29T02:38:55;99122.44;;;15.17;100.00
14269;BME280;7218;51.480;7.006;2023-07-29T02:41:22;99121.66;;;15.15;100.00
14269;BME280;7218;51.480;7.006;2023-07-29T02:43:49;99129.19;;;15.21;100.00
14269;BME280;7218;51.480;7.006;2023-07-29T02:46:16;99130.50;;;15.14;100.00
14269;BME280;7218;51.480;7.006;2023-07-29T02:48:45;99129.22;;;15.05;100.00
14269;BME280;7218;51.480;7.006;2023-07-29T02:51:11;99123.47;;;14.99;100.00
14269;BME280;7218;51.480;7.006;2023-07-29T02:53:38;99124.28;;;14.99;100.00
14269;BME280;7218;51.480;7.006;2023-07-29T02:56:04;99122.78;;;14.95;100.00
14269;BME280;7218;51.480;7.006;2023-07-29T02:58:35;99119.22;;;14.96;100.00
14269;BME280;7218;51.480;7.006;2023-07-29T03:01:02;99122.69;;;14.97;100.00
14269;BME280;7218;51.480;7.006;2023-07-29T03:03:29;99132.41;;;14.95;100.00
14269;BME280;7218;51.480;7.006;2023-07-29T03:06:01;99138.19;;;15.01;100.00
14269;BME280;7218;51.480;7.006;2023-07-29T03:08:28;99147.44;;;14.93;100.00
14269;BME280;7218;51.480;7.006;2023-07-29T03:10:55;99136.47;;;14.85;100.00
14269;BME280;7218;51.480;7.006;2023-07-29T03:13:21;99136.00;;;14.78;100.00
14269;BME280;7218;51.480;7.006;2023-07-29T03:15:48;99129.78;;;14.95;100.00
14269;BME280;7218;51.480;7.006;2023-07-29T03:18:15;99135.75;;;14.98;100.00
14269;BME280;7218;51.480;7.006;2023-07-29T03:20:41;99128.72;;;14.99;100.00
14269;BME280;7218;51.480;7.006;2023-07-29T03:23:09;99128.47;;;15.03;100.00
14269;BME280;7218;51.480;7.006;2023-07-29T03:25:36;99128.13;;;14.94;100.00
14269;BME280;7218;51.480;7.006;2023-07-29T03:28:03;99127.34;;;14.76;100.00
14269;BME280;7218;51.480;7.006;2023-07-29T03:30:29;99136.16;;;14.75;100.00
14269;BME280;7218;51.480;7.006;2023-07-29T03:32:56;99133.88;;;14.85;100.00
14269;BME280;7218;51.480;7.006;2023-07-29T03:35:22;99137.78;;;14.78;100.00
14269;BME280;7218;51.480;7.006;2023-07-29T03:37:49;99129.81;;;14.79;100.00
14269;BME280;7218;51.480;7.006;2023-07-29T03:40:17;99125.31;;;14.81;100.00
14269;BME280;7218;51.480;7.006;2023-07-29T03:42:43;99127.28;;;14.78;100.00
14269;BME280;7218;51.480;7.006;2023-07-29T03:45:10;99137.50;;;14.67;100.00
14269;BME280;7218;51.480;7.006;2023-07-29T03:47:37;99130.56;;;14.81;100.00
14269;BME280;7218;51.480;7.006;2023-07-29T03:50:04;99126.69;;;14.73;100.00
14269;BME280;7218;51.480;7.006;2023-07-29T03:52:31;99114.31;;;14.75;100.00
14269;BME280;7218;51.480;7.006;2023-07-29T03:54:57;99105.34;;;14.79;100.00
14269;BME280;7218;51.480;7.006;2023-07-29T03:57:25;99109.56;;;14.81;100.00
14269;BME280;7218;51.480;7.006;2023-07-29T03:59:52;99111.94;;;14.86;100.00
14269;BME280;7218;51.480;7.006;2023-07-29T04:02:25;99117.19;;;14.86;100.00
14269;BME280;7218;51.480;7.006;2023-07-29T04:04:51;99111.34;;;14.81;100.00
14269;BME280;7218;51.480;7.006;2023-07-29T04:07:18;99110.59;;;14.79;100.00
14269;BME280;7218;51.480;7.006;2023-07-29T04:09:44;99111.59;;;14.76;100.00
14269;BME280;7218;51.480;7.006;2023-07-29T04:12:11;99115.16;;;14.91;100.00
14269;BME280;7218;51.480;7.006;2023-07-29T04:14:39;99116.66;;;14.95;100.00
14269;BME280;7218;51.480;7.006;2023-07-29T04:17:06;99116.00;;;14.91;100.00
14269;BME280;7218;51.480;7.006;2023-07-29T04:19:33;99122.63;;;14.83;100.00
14269;BME280;7218;51.480;7.006;2023-07-29T04:22:00;99116.84;;;15.07;100.00
14269;BME280;7218;51.480;7.006;2023-07-29T04:24:26;99117.59;;;15.09;100.00
14269;BME280;7218;51.480;7.006;2023-07-29T04:26:53;99101.09;;;15.07;100.00
14269;BME280;7218;51.480;7.006;2023-07-29T04:29:19;99108.78;;;15.11;100.00
14269;BME280;7218;51.480;7.006;2023-07-29T04:31:49;99113.03;;;14.82;100.00
14269;BME280;7218;51.480;7.006;2023-07-29T04:34:15;99122.59;;;14.67;100.00
14269;BME280;7218;51.480;7.006;2023-07-29T04:36:42;99143.75;;;14.48;100.00
14269;BME280;7218;51.480;7.006;2023-07-29T04:39:11;99138.06;;;14.56;100.00
14269;BME280;7218;51.480;7.006;2023-07-29T04:41:39;99145.34;;;14.51;100.00
14269;BME280;7218;51.480;7.006;2023-07-29T04:44:06;99148.38;;;14.43;100.00
14269;BME280;7218;51.480;7.006;2023-07-29T04:46:33;99150.19;;;14.58;100.00
14269;BME280;7218;51.480;7.006;2023-07-29T04:49:00;99148.41;;;14.59;100.00
14269;BME280;7218;51.480;7.006;2023-07-29T04:51:28;99150.88;;;14.62;100.00
14269;BME280;7218;51.480;7.006;2023-07-29T04:53:54;99166.84;;;14.57;100.00
14269;BME280;7218;51.480;7.006;2023-07-29T04:56:21;99172.34;;;14.53;100.00
14269;BME280;7218;51.480;7.006;2023-07-29T04:58:47;99160.66;;;14.43;100.00
14269;BME280;7218;51.480;7.006;2023-07-29T05:01:14;99175.53;;;14.42;100.00
14269;BME280;7218;51.480;7.006;2023-07-29T05:03:40;99175.84;;;14.36;100.00
14269;BME280;7218;51.480;7.006;2023-07-29T05:06:08;99168.81;;;14.54;100.00
14269;BME280;7218;51.480;7.006;2023-07-29T05:08:34;99165.97;;;14.41;100.00
14269;BME280;7218;51.480;7.006;2023-07-29T05:11:01;99154.13;;;14.50;100.00
14269;BME280;7218;51.480;7.006;2023-07-29T05:13:27;99134.34;;;14.60;100.00
14269;BME280;7218;51.480;7.006;2023-07-29T05:15:54;99130.06;;;14.59;100.00
14269;BME280;7218;51.480;7.006;2023-07-29T05:18:21;99122.75;;;14.48;100.00
14269;BME280;7218;51.480;7.006;2023-07-29T05:20:48;99123.44;;;14.35;100.00
14269;BME280;7218;51.480;7.006;2023-07-29T05:23:16;99124.25;;;14.37;100.00
14269;BME280;7218;51.480;7.006;2023-07-29T05:25:42;99116.66;;;14.48;100.00
14269;BME280;7218;51.480;7.006;2023-07-29T05:28:09;99122.84;;;14.47;100.00
14269;BME280;7218;51.480;7.006;2023-07-29T05:30:35;99123.38;;;14.69;100.00
14269;BME280;7218;51.480;7.006;2023-07-29T05:33:04;99128.03;;;14.64;100.00
14269;BME280;7218;51.480;7.006;2023-07-29T05:35:33;99135.19;;;14.60;100.00
14269;BME280;7218;51.480;7.006;2023-07-29T05:37:59;99150.38;;;14.71;100.00
14269;BME280;7218;51.480;7.006;2023-07-29T05:40:27;99152.31;;;14.68;100.00
14269;BME280;7218;51.480;7.006;2023-07-29T05:42:53;99169.22;;;14.62;100.00
14269;BME280;7218;51.480;7.006;2023-07-29T05:45:21;99173.03;;;14.56;100.00
14269;BME280;7218;51.480;7.006;2023-07-29T05:47:47;99180.97;;;14.55;100.00
14269;BME280;7218;51.480;7.006;2023-07-29T05:50:14;99192.72;;;14.48;100.00
14269;BME280;7218;51.480;7.006;2023-07-29T05:52:41;99193.69;;;14.62;100.00
14269;BME280;7218;51.480;7.006;2023-07-29T05:55:08;99200.66;;;14.63;100.00
14269;BME280;7218;51.480;7.006;2023-07-29T05:57:36;99182.06;;;14.51;100.00
14269;BME280;7218;51.480;7.006;2023-07-29T06:00:03;99187.84;;;14.57;100.00
14269;BME280;7218;51.480;7.006;2023-07-29T06:02:29;99203.63;;;14.23;100.00
14269;BME280;7218;51.480;7.006;2023-07-29T06:04:56;99196.88;;;14.52;100.00
14269;BME280;7218;51.480;7.006;2023-07-29T06:07:22;99191.94;;;14.63;100.00
14269;BME280;7218;51.480;7.006;2023-07-29T06:09:49;99203.53;;;14.75;100.00
14269;BME280;7218;51.480;7.006;2023-07-29T06:12:15;99210.78;;;14.70;100.00
14269;BME280;7218;51.480;7.006;2023-07-29T06:14:43;99214.03;;;14.75;100.00
14269;BME280;7218;51.480;7.006;2023-07-29T06:17:10;99216.75;;;14.73;100.00
14269;BME280;7218;51.480;7.006;2023-07-29T06:19:37;99223.28;;;14.82;100.00
14269;BME280;7218;51.480;7.006;2023-07-29T06:22:04;99229.59;;;14.62;100.00
14269;BME280;7218;51.480;7.006;2023-07-29T06:24:31;99226.19;;;14.60;100.00
14269;BME280;7218;51.480;7.006;2023-07-29T06:26:57;99231.78;;;14.70;100.00
14269;BME280;7218;51.480;7.006;2023-07-29T06:29:24;99237.28;;;14.65;100.00
14269;BME280;7218;51.480;7.006;2023-07-29T06:31:52;99243.84;;;14.74;100.00
14269;BME280;7218;51.480;7.006;2023-07-29T06:34:19;99241.56;;;14.50;100.00
14269;BME280;7218;51.480;7.006;2023-07-29T06:36:46;99244.28;;;14.49;100.00
14269;BME280;7218;51.480;7.006;2023-07-29T06:39:12;99248.38;;;14.37;100.00
14269;BME280;7218;51.480;7.006;2023-07-29T06:41:39;99234.31;;;14.21;100.00
14269;BME280;7218;51.480;7.006;2023-07-29T06:44:05;99243.41;;;14.14;100.00
14269;BME280;7218;51.480;7.006;2023-07-29T06:46:32;99248.81;;;14.45;100.00
14269;BME280;7218;51.480;7.006;2023-07-29T06:49:00;99251.13;;;14.34;100.00
14269;BME280;7218;51.480;7.006;2023-07-29T06:51:26;99255.88;;;14.60;100.00
14269;BME280;7218;51.480;7.006;2023-07-29T06:53:54;99259.84;;;14.52;100.00
14269;BME280;7218;51.480;7.006;2023-07-29T06:56:21;99253.38;;;14.25;100.00
14269;BME280;7218;51.480;7.006;2023-07-29T06:58:47;99248.91;;;14.44;100.00
14269;BME280;7218;51.480;7.006;2023-07-29T07:01:14;99245.75;;;14.54;100.00
14269;BME280;7218;51.480;7.006;2023-07-29T07:03:40;99236.41;;;14.82;100.00
14269;BME280;7218;51.480;7.006;2023-07-29T07:06:08;99229.78;;;14.75;100.00
14269;BME280;7218;51.480;7.006;2023-07-29T07:08:35;99245.94;;;14.50;100.00
14269;BME280;7218;51.480;7.006;2023-07-29T07:11:01;99242.41;;;14.16;100.00
14269;BME280;7218;51.480;7.006;2023-07-29T07:13:28;99242.88;;;14.42;100.00
14269;BME280;7218;51.480;7.006;2023-07-29T07:15:54;99242.03;;;14.41;100.00
14269;BME280;7218;51.480;7.006;2023-07-29T07:18:21;99236.84;;;14.57;100.00
14269;BME280;7218;51.480;7.006;2023-07-29T07:20:48;99246.84;;;14.66;100.00
14269;BME280;7218;51.480;7.006;2023-07-29T07:23:16;99249.81;;;14.93;100.00
14269;BME280;7218;51.480;7.006;2023-07-29T07:25:43;99235.66;;;14.95;100.00
14269;BME280;7218;51.480;7.006;2023-07-29T07:28:10;99240.75;;;14.98;100.00
14269;BME280;7218;51.480;7.006;2023-07-29T07:30:39;99235.44;;;15.31;100.00
14269;BME280;7218;51.480;7.006;2023-07-29T07:33:06;99249.31;;;15.02;100.00
14269;BME280;7218;51.480;7.006;2023-07-29T07:35:33;99238.31;;;15.11;100.00
14269;BME280;7218;51.480;7.006;2023-07-29T07:37:59;99246.03;;;14.81;100.00
14269;BME280;7218;51.480;7.006;2023-07-29T07:40:30;99247.06;;;14.94;100.00
14269;BME280;7218;51.480;7.006;2023-07-29T07:42:56;99247.31;;;15.23;100.00
14269;BME280;7218;51.480;7.006;2023-07-29T07:45:23;99240.41;;;15.20;100.00
14269;BME280;7218;51.480;7.006;2023-07-29T07:47:51;99240.94;;;15.11;100.00
14269;BME280;7218;51.480;7.006;2023-07-29T07:50:18;99234.78;;;15.43;100.00
14269;BME280;7218;51.480;7.006;2023-07-29T07:52:44;99233.63;;;15.00;100.00
14269;BME280;7218;51.480;7.006;2023-07-29T07:55:14;99237.88;;;15.34;100.00
14269;BME280;7218;51.480;7.006;2023-07-29T07:57:42;99235.28;;;15.66;100.00
14269;BME280;7218;51.480;7.006;2023-07-29T08:00:10;99246.44;;;15.69;100.00
14269;BME280;7218;51.480;7.006;2023-07-29T08:02:36;99250.34;;;15.78;100.00
14269;BME280;7218;51.480;7.006;2023-07-29T08:05:03;99244.81;;;15.98;100.00
14269;BME280;7218;51.480;7.006;2023-07-29T08:07:30;99247.88;;;15.90;100.00
14269;BME280;7218;51.480;7.006;2023-07-29T08:09:57;99243.63;;;15.88;100.00
14269;BME280;7218;51.480;7.006;2023-07-29T08:12:23;99246.84;;;15.93;100.00
14269;BME280;7218;51.480;7.006;2023-07-29T08:14:51;99246.59;;;15.98;98.76
14269;BME280;7218;51.480;7.006;2023-07-29T08:17:18;99244.13;;;15.94;100.00
14269;BME280;7218;51.480;7.006;2023-07-29T08:19:44;99244.88;;;15.97;100.00
14269;BME280;7218;51.480;7.006;2023-07-29T08:22:11;99241.72;;;16.06;100.00
14269;BME280;7218;51.480;7.006;2023-07-29T08:24:37;99245.47;;;16.31;100.00
14269;BME280;7218;51.480;7.006;2023-07-29T08:27:04;99243.94;;;16.27;99.36
14269;BME280;7218;51.480;7.006;2023-07-29T08:29:31;99248.41;;;16.11;98.14
14269;BME280;7218;51.480;7.006;2023-07-29T08:31:59;99249.44;;;16.39;97.06
14269;BME280;7218;51.480;7.006;2023-07-29T08:34:25;99255.41;;;16.26;97.28
14269;BME280;7218;51.480;7.006;2023-07-29T08:36:52;99246.88;;;16.37;97.66
14269;BME280;7218;51.480;7.006;2023-07-29T08:39:18;99251.00;;;16.41;99.76
14269;BME280;7218;51.480;7.006;2023-07-29T08:41:50;99248.97;;;16.46;97.87
14269;BME280;7218;51.480;7.006;2023-07-29T08:44:21;99251.38;;;16.05;98.91
14269;BME280;7218;51.480;7.006;2023-07-29T08:46:49;99247.13;;;16.18;99.18
14269;BME280;7218;51.480;7.006;2023-07-29T08:49:18;99252.53;;;16.45;97.64
14269;BME280;7218;51.480;7.006;2023-07-29T08:51:45;99238.75;;;16.84;95.82
14269;BME280;7218;51.480;7.006;2023-07-29T08:54:13;99236.16;;;16.98;97.13
14269;BME280;7218;51.480;7.006;2023-07-29T08:56:40;99229.56;;;16.91;97.09
14269;BME280;7218;51.480;7.006;2023-07-29T08:59:08;99235.75;;;17.04;93.48
14269;BME280;7218;51.480;7.006;2023-07-29T09:01:35;99239.91;;;17.08;91.12
14269;BME280;7218;51.480;7.006;2023-07-29T09:04:02;99241.97;;;17.03;93.57
14269;BME280;7218;51.480;7.006;2023-07-29T09:06:30;99236.50;;;17.06;94.00
14269;BME280;7218;51.480;7.006;2023-07-29T09:08:58;99229.91;;;17.28;92.05
14269;BME280;7218;51.480;7.006;2023-07-29T09:11:26;99247.66;;;17.38;91.80
14269;BME280;7218;51.480;7.006;2023-07-29T09:13:52;99240.22;;;17.31;93.65
14269;BME280;7218;51.480;7.006;2023-07-29T09:16:20;99244.34;;;17.35;93.62
14269;BME280;7218;51.480;7.006;2023-07-29T09:18:47;99250.28;;;17.38;92.22
14269;BME280;7218;51.480;7.006;2023-07-29T09:21:22;99238.16;;;17.77;90.63
14269;BME280;7218;51.480;7.006;2023-07-29T09:23:51;99246.53;;;17.14;93.86
14269;BME280;7218;51.480;7.006;2023-07-29T09:26:22;99250.97;;;16.99;95.29
14269;BME280;7218;51.480;7.006;2023-07-29T09:28:52;99247.84;;;17.76;92.96
14269;BME280;7218;51.480;7.006;2023-07-29T09:31:19;99242.19;;;18.34;89.06
14269;BME280;7218;51.480;7.006;2023-07-29T09:33:46;99244.03;;;18.84;86.37
14269;BME280;7218;51.480;7.006;2023-07-29T09:36:14;99237.63;;;18.11;89.02
14269;BME280;7218;51.480;7.006;2023-07-29T09:38:40;99249.41;;;17.66;92.02
14269;BME280;7218;51.480;7.006;2023-07-29T09:41:11;99254.16;;;17.74;92.85
14269;BME280;7218;51.480;7.006;2023-07-29T09:43:39;99253.19;;;17.34;93.86
14269;BME280;7218;51.480;7.006;2023-07-29T09:46:05;99256.53;;;16.95;96.20
14269;BME280;7218;51.480;7.006;2023-07-29T09:48:35;99264.34;;;16.68;98.02
14269;BME280;7218;51.480;7.006;2023-07-29T09:51:09;99263.03;;;17.03;97.79
14269;BME280;7218;51.480;7.006;2023-07-29T09:53:39;99257.78;;;17.44;95.72
14269;BME280;7218;51.480;7.006;2023-07-29T09:56:08;99261.72;;;17.10;95.75
14269;BME280;7218;51.480;7.006;2023-07-29T09:58:34;99259.97;;;17.23;95.88
14269;BME280;7218;51.480;7.006;2023-07-29T10:01:03;99264.81;;;17.17;96.73
14269;BME280;7218;51.480;7.006;2023-07-29T10:03:31;99259.03;;;17.39;95.12
14269;BME280;7218;51.480;7.006;2023-07-29T10:05:59;99255.41;;;17.54;94.25
14269;BME280;7218;51.480;7.006;2023-07-29T10:08:27;99251.31;;;18.03;91.50
14269;BME280;7218;51.480;7.006;2023-07-29T10:10:55;99259.28;;;18.29;89.59
14269;BME280;7218;51.480;7.006;2023-07-29T10:13:25;99242.94;;;18.36;89.96
14269;BME280;7218;51.480;7.006;2023-07-29T10:15:53;99252.06;;;18.58;88.00
14269;BME280;7218;51.480;7.006;2023-07-29T10:18:20;99245.19;;;18.80;86.66
14269;BME280;7218;51.480;7.006;2023-07-29T10:20:48;99243.66;;;19.27;86.62
14269;BME280;7218;51.480;7.006;2023-07-29T10:23:17;99257.44;;;19.07;83.40
14269;BME280;7218;51.480;7.006;2023-07-29T10:25:47;99251.13;;;19.82;82.36
14269;BME280;7218;51.480;7.006;2023-07-29T10:28:18;99241.19;;;19.97;79.47
14269;BME280;7218;51.480;7.006;2023-07-29T10:30:48;99253.44;;;18.76;86.97
14269;BME280;7218;51.480;7.006;2023-07-29T10:33:14;99243.19;;;18.71;86.98
14269;BME280;7218;51.480;7.006;2023-07-29T10:35:41;99248.47;;;18.71;86.92
14269;BME280;7218;51.480;7.006;2023-07-29T10:38:08;99253.13;;;18.68;88.08
14269;BME280;7218;51.480;7.006;2023-07-29T10:40:46;99244.91;;;18.72;88.63
14269;BME280;7218;51.480;7.006;2023-07-29T10:43:19;99252.50;;;18.12;90.96
14269;BME280;7218;51.480;7.006;2023-07-29T10:45:45;99259.00;;;18.46;89.39
14269;BME280;7218;51.480;7.006;2023-07-29T10:48:39;99254.06;;;18.79;86.14
14269;BME280;7218;51.480;7.006;2023-07-29T10:51:25;99258.63;;;18.77;85.64
14269;BME280;7218;51.480;7.006;2023-07-29T10:53:55;99255.47;;;19.47;83.60
14269;BME280;7218;51.480;7.006;2023-07-29T10:56:29;99259.63;;;20.33;78.47
14269;BME280;7218;51.480;7.006;2023-07-29T10:58:58;99255.28;;;20.67;79.41
14269;BME280;7218;51.480;7.006;2023-07-29T11:01:29;99255.28;;;19.37;82.29
14269;BME280;7218;51.480;7.006;2023-07-29T11:04:24;99249.72;;;19.04;84.40
14269;BME280;7218;51.480;7.006;2023-07-29T11:07:20;99244.44;;;20.00;79.75
14269;BME280;7218;51.480;7.006;2023-07-29T11:09:57;99241.75;;;20.24;78.50
14269;BME280;7218;51.480;7.006;2023-07-29T11:12:44;99237.72;;;19.96;79.81
14269;BME280;7218;51.480;7.006;2023-07-29T11:15:17;99244.63;;;20.45;79.56
14269;BME280;7218;51.480;7.006;2023-07-29T11:17:46;99240.38;;;19.72;78.45
14269;BME280;7218;51.480;7.006;2023-07-29T11:20:15;99226.97;;;19.98;78.79
14269;BME280;7218;51.480;7.006;2023-07-29T11:22:42;99238.41;;;20.22;77.78
14269;BME280;7218;51.480;7.006;2023-07-29T11:25:12;99236.47;;;19.89;80.91
14269;BME280;7218;51.480;7.006;2023-07-29T11:27:39;99236.56;;;19.64;81.26
14269;BME280;7218;51.480;7.006;2023-07-29T11:30:07;99231.25;;;19.40;83.01
14269;BME280;7218;51.480;7.006;2023-07-29T11:32:35;99237.06;;;19.45;82.57
14269;BME280;7218;51.480;7.006;2023-07-29T11:35:04;99239.00;;;19.30;81.71
14269;BME280;7218;51.480;7.006;2023-07-29T11:37:32;99237.78;;;18.98;82.79
14269;BME280;7218;51.480;7.006;2023-07-29T11:39:59;99243.00;;;18.62;85.32
14269;BME280;7218;51.480;7.006;2023-07-29T11:42:26;99244.47;;;18.14;86.79
14269;BME280;7218;51.480;7.006;2023-07-29T11:44:53;99243.56;;;18.27;85.76
14269;BME280;7218;51.480;7.006;2023-07-29T11:47:19;99235.41;;;19.19;82.50
14269;BME280;7218;51.480;7.006;2023-07-29T11:49:46;99235.00;;;19.61;79.20
14269;BME280;7218;51.480;7.006;2023-07-29T11:52:12;99238.56;;;20.08;76.23
14269;BME280;7218;51.480;7.006;2023-07-29T11:54:40;99230.97;;;20.27;76.98
14269;BME280;7218;51.480;7.006;2023-07-29T11:57:08;99229.31;;;21.17;73.28
14269;BME280;7218;51.480;7.006;2023-07-29T11:59:36;99216.44;;;21.55;73.31
14269;BME280;7218;51.480;7.006;2023-07-29T12:02:06;99228.09;;;22.07;69.12
14269;BME280;7218;51.480;7.006;2023-07-29T12:04:34;99222.16;;;20.95;72.87
14269;BME280;7218;51.480;7.006;2023-07-29T12:07:01;99230.13;;;21.06;71.97
14269;BME280;7218;51.480;7.006;2023-07-29T12:09:28;99215.72;;;21.53;68.28
14269;BME280;7218;51.480;7.006;2023-07-29T12:11:57;99215.03;;;22.36;67.31
14269;BME280;7218;51.480;7.006;2023-07-29T12:14:25;99201.75;;;22.87;64.93
14269;BME280;7218;51.480;7.006;2023-07-29T12:16:52;99227.44;;;21.39;67.83
14269;BME280;7218;51.480;7.006;2023-07-29T12:19:19;99214.56;;;20.90;70.68
14269;BME280;7218;51.480;7.006;2023-07-29T12:21:47;99213.22;;;21.40;70.09
14269;BME280;7218;51.480;7.006;2023-07-29T12:24:14;99216.63;;;21.20;68.23
14269;BME280;7218;51.480;7.006;2023-07-29T12:26:41;99219.00;;;21.34;69.52
14269;BME280;7218;51.480;7.006;2023-07-29T12:29:17;99222.75;;;20.87;71.71
14269;BME280;7218;51.480;7.006;2023-07-29T12:31:44;99223.63;;;22.07;66.80
14269;BME280;7218;51.480;7.006;2023-07-29T12:34:17;99225.16;;;21.46;68.23
14269;BME280;7218;51.480;7.006;2023-07-29T12:36:45;99225.28;;;21.00;71.76
14269;BME280;7218;51.480;7.006;2023-07-29T12:39:20;99229.13;;;21.83;68.94
14269;BME280;7218;51.480;7.006;2023-07-29T12:41:48;99225.72;;;22.24;65.02
14269;BME280;7218;51.480;7.006;2023-07-29T12:44:16;99233.53;;;22.88;60.14
14269;BME280;7218;51.480;7.006;2023-07-29T12:46:43;99240.91;;;22.75;59.88
14269;BME280;7218;51.480;7.006;2023-07-29T12:49:10;99233.81;;;23.15;59.12
14269;BME280;7218;51.480;7.006;2023-07-29T12:51:36;99233.19;;;21.67;64.36
14269;BME280;7218;51.480;7.006;2023-07-29T12:54:03;99227.09;;;20.99;67.78
14269;BME280;7218;51.480;7.006;2023-07-29T12:56:30;99230.47;;;21.01;67.32
14269;BME280;7218;51.480;7.006;2023-07-29T12:58:57;99215.66;;;21.10;70.17
14269;BME280;7218;51.480;7.006;2023-07-29T13:01:26;99217.66;;;21.94;67.05
14269;BME280;7218;51.480;7.006;2023-07-29T13:03:53;99222.56;;;22.51;63.60
14269;BME280;7218;51.480;7.006;2023-07-29T13:06:20;99228.56;;;22.53;63.29
14269;BME280;7218;51.480;7.006;2023-07-29T13:08:47;99215.00;;;23.07;60.51